sensor_id;sensor_type;location;lat;lon;timestamp;temperature;humidity
70762;DHT22;58360;0.000;0.000;2023-02-14T00:01:58;4.70;90.80
70762;DHT22;58360;0.000;0.000;2023-02-14T00:04:24;4.70;90.80
70762;DHT22;58360;0.000;0.000;2023-02-14T00:06:50;4.80;90.80
70762;DHT22;58360;0.000;0.000;2023-02-14T00:09:17;4.70;90.80
70762;DHT22;58360;0.000;0.000;2023-02-14T00:11:44;4.70;90.80
70762;DHT22;58360;0.000;0.000;2023-02-14T00:14:10;4.60;90.80
70762;DHT22;58360;0.000;0.000;2023-02-14T00:16:55;4.60;90.70
70762;DHT22;58360;0.000;0.000;2023-02-14T00:19:22;4.60;90.70
70762;DHT22;58360;0.000;0.000;2023-02-14T00:21:48;4.60;90.60
70762;DHT22;58360;0.000;0.000;2023-02-14T00:24:16;4.60;90.60
70762;DHT22;58360;0.000;0.000;2023-02-14T00:26:42;4.60;90.40
70762;DHT22;58360;0.000;0.000;2023-02-14T00:29:11;4.60;90.40
70762;DHT22;58360;0.000;0.000;2023-02-14T00:31:37;4.60;90.40
70762;DHT22;58360;0.000;0.000;2023-02-14T00:34:04;4.50;90.60
70762;DHT22;58360;0.000;0.000;2023-02-14T00:36:31;4.50;90.60
70762;DHT22;58360;0.000;0.000;2023-02-14T00:38:57;4.40;90.70
70762;DHT22;58360;0.000;0.000;2023-02-14T00:41:23;4.40;90.60
70762;DHT22;58360;0.000;0.000;2023-02-14T00:43:50;4.40;90.60
70762;DHT22;58360;0.000;0.000;2023-02-14T00:46:17;4.40;90.60
70762;DHT22;58360;0.000;0.000;2023-02-14T00:48:45;4.40;90.70
70762;DHT22;58360;0.000;0.000;2023-02-14T00:51:11;4.40;90.60
70762;DHT22;58360;0.000;0.000;2023-02-14T00:53:38;4.40;90.60
70762;DHT22;58360;0.000;0.000;2023-02-14T00:56:04;4.40;90.60
70762;DHT22;58360;0.000;0.000;2023-02-14T00:58:30;4.40;90.60
70762;DHT22;58360;0.000;0.000;2023-02-14T01:00:56;4.30;90.60
70762;DHT22;58360;0.000;0.000;2023-02-14T01:03:22;4.30;90.60
70762;DHT22;58360;0.000;0.000;2023-02-14T01:05:48;4.40;90.50
70762;DHT22;58360;0.000;0.000;2023-02-14T01:08:14;4.30;90.40
70762;DHT22;58360;0.000;0.000;2023-02-14T01:10:40;4.30;90.40
70762;DHT22;58360;0.000;0.000;2023-02-14T01:13:09;4.30;90.60
70762;DHT22;58360;0.000;0.000;2023-02-14T01:15:46;4.20;90.60
70762;DHT22;58360;0.000;0.000;2023-02-14T01:18:13;4.20;90.70
70762;DHT22;58360;0.000;0.000;2023-02-14T01:20:39;4.20;90.70
70762;DHT22;58360;0.000;0.000;2023-02-14T01:23:05;4.20;90.80
70762;DHT22;58360;0.000;0.000;2023-02-14T01:25:31;4.10;90.80
70762;DHT22;58360;0.000;0.000;2023-02-14T01:27:57;4.10;90.80
70762;DHT22;58360;0.000;0.000;2023-02-14T01:30:23;4.10;90.80
70762;DHT22;58360;0.000;0.000;2023-02-14T01:32:49;4.10;90.80
70762;DHT22;58360;0.000;0.000;2023-02-14T01:35:14;4.10;90.70
70762;DHT22;58360;0.000;0.000;2023-02-14T01:37:40;4.10;90.70
70762;DHT22;58360;0.000;0.000;2023-02-14T01:40:07;4.10;90.70
70762;DHT22;58360;0.000;0.000;2023-02-14T01:42:35;4.00;90.70
70762;DHT22;58360;0.000;0.000;2023-02-14T01:45:21;3.90;90.70
70762;DHT22;58360;0.000;0.000;2023-02-14T01:47:51;3.90;90.90
70762;DHT22;58360;0.000;0.000;2023-02-14T01:50:31;3.80;90.90
70762;DHT22;58360;0.000;0.000;2023-02-14T01:53:20;3.90;90.90
70762;DHT22;58360;0.000;0.000;2023-02-14T01:55:52;3.90;91.00
70762;DHT22;58360;0.000;0.000;2023-02-14T01:58:24;3.80;91.20
70762;DHT22;58360;0.000;0.000;2023-02-14T02:00:50;3.80;91.10
70762;DHT22;58360;0.000;0.000;2023-02-14T02:05:58;3.80;91.00
70762;DHT22;58360;0.000;0.000;2023-02-14T02:08:26;3.80;91.00
70762;DHT22;58360;0.000;0.000;2023-02-14T02:10:52;3.70;91.10
70762;DHT22;58360;0.000;0.000;2023-02-14T02:13:19;3.70;91.10
70762;DHT22;58360;0.000;0.000;2023-02-14T02:29:58;3.60;91.10
70762;DHT22;58360;0.000;0.000;2023-02-14T02:43:52;3.50;91.10
70762;DHT22;58360;0.000;0.000;2023-02-14T02:52:47;3.60;90.80
70762;DHT22;58360;0.000;0.000;2023-02-14T02:58:23;3.50;91.00
70762;DHT22;58360;0.000;0.000;2023-02-14T03:00:51;3.40;91.20
70762;DHT22;58360;0.000;0.000;2023-02-14T03:03:20;3.40;91.20
70762;DHT22;58360;0.000;0.000;2023-02-14T03:06:05;3.40;91.10
70762;DHT22;58360;0.000;0.000;2023-02-14T03:08:30;3.40;91.10
70762;DHT22;58360;0.000;0.000;2023-02-14T03:10:56;3.40;91.00
70762;DHT22;58360;0.000;0.000;2023-02-14T03:13:44;3.40;90.90
70762;DHT22;58360;0.000;0.000;2023-02-14T03:19:01;3.20;91.10
70762;DHT22;58360;0.000;0.000;2023-02-14T03:21:55;3.20;91.30
70762;DHT22;58360;0.000;0.000;2023-02-14T03:27:31;3.20;91.10
70762;DHT22;58360;0.000;0.000;2023-02-14T03:32:44;3.20;91.20
70762;DHT22;58360;0.000;0.000;2023-02-14T03:35:21;3.20;91.20
70762;DHT22;58360;0.000;0.000;2023-02-14T03:38:02;3.30;91.10
70762;DHT22;58360;0.000;0.000;2023-02-14T03:40:41;3.20;91.00
70762;DHT22;58360;0.000;0.000;2023-02-14T03:43:09;3.10;91.10
70762;DHT22;58360;0.000;0.000;2023-02-14T03:45:50;3.10;91.20
70762;DHT22;58360;0.000;0.000;2023-02-14T03:48:19;3.00;91.30
70762;DHT22;58360;0.000;0.000;2023-02-14T03:50:50;2.90;91.40
70762;DHT22;58360;0.000;0.000;2023-02-14T03:53:21;2.90;91.50
70762;DHT22;58360;0.000;0.000;2023-02-14T03:56:02;2.80;91.50
70762;DHT22;58360;0.000;0.000;2023-02-14T03:58:36;2.80;91.60
70762;DHT22;58360;0.000;0.000;2023-02-14T04:01:07;2.80;91.70
70762;DHT22;58360;0.000;0.000;2023-02-14T04:03:38;2.80;91.60
70762;DHT22;58360;0.000;0.000;2023-02-14T04:06:05;2.90;91.50
70762;DHT22;58360;0.000;0.000;2023-02-14T04:08:31;2.90;91.30
70762;DHT22;58360;0.000;0.000;2023-02-14T04:10:59;3.00;91.40
70762;DHT22;58360;0.000;0.000;2023-02-14T04:13:25;3.00;91.20
70762;DHT22;58360;0.000;0.000;2023-02-14T04:15:51;3.00;91.20
70762;DHT22;58360;0.000;0.000;2023-02-14T04:18:16;2.90;91.30
70762;DHT22;58360;0.000;0.000;2023-02-14T04:21:01;2.90;91.50
70762;DHT22;58360;0.000;0.000;2023-02-14T04:23:27;2.90;91.40
70762;DHT22;58360;0.000;0.000;2023-02-14T04:25:53;2.90;91.40
70762;DHT22;58360;0.000;0.000;2023-02-14T04:28:18;2.90;91.40
70762;DHT22;58360;0.000;0.000;2023-02-14T04:30:44;2.90;91.30
70762;DHT22;58360;0.000;0.000;2023-02-14T04:33:10;2.80;91.20
70762;DHT22;58360;0.000;0.000;2023-02-14T04:35:36;2.80;91.30
70762;DHT22;58360;0.000;0.000;2023-02-14T04:38:03;2.80;91.50
70762;DHT22;58360;0.000;0.000;2023-02-14T04:40:29;2.80;91.60
70762;DHT22;58360;0.000;0.000;2023-02-14T04:42:55;2.80;91.60
70762;DHT22;58360;0.000;0.000;2023-02-14T04:45:21;2.80;91.50
70762;DHT22;58360;0.000;0.000;2023-02-14T04:47:47;2.80;91.40
70762;DHT22;58360;0.000;0.000;2023-02-14T04:50:13;2.70;91.60
70762;DHT22;58360;0.000;0.000;2023-02-14T04:52:39;2.70;91.60
70762;DHT22;58360;0.000;0.000;2023-02-14T04:55:05;2.70;91.50
70762;DHT22;58360;0.000;0.000;2023-02-14T04:57:31;2.80;91.40
70762;DHT22;58360;0.000;0.000;2023-02-14T04:59:57;2.90;91.20
70762;DHT22;58360;0.000;0.000;2023-02-14T05:02:23;2.90;91.20
70762;DHT22;58360;0.000;0.000;2023-02-14T05:04:48;2.80;91.30
70762;DHT22;58360;0.000;0.000;2023-02-14T05:07:14;2.80;91.40
70762;DHT22;58360;0.000;0.000;2023-02-14T05:09:40;2.80;91.60
70762;DHT22;58360;0.000;0.000;2023-02-14T05:12:06;2.70;91.80
70762;DHT22;58360;0.000;0.000;2023-02-14T05:14:31;2.70;91.90
70762;DHT22;58360;0.000;0.000;2023-02-14T05:16:57;2.70;91.90
70762;DHT22;58360;0.000;0.000;2023-02-14T05:19:23;2.70;91.90
70762;DHT22;58360;0.000;0.000;2023-02-14T05:21:48;2.70;91.90
70762;DHT22;58360;0.000;0.000;2023-02-14T05:24:15;2.60;91.90
70762;DHT22;58360;0.000;0.000;2023-02-14T05:26:41;2.70;91.90
70762;DHT22;58360;0.000;0.000;2023-02-14T05:29:07;2.60;91.90
70762;DHT22;58360;0.000;0.000;2023-02-14T05:31:32;2.70;92.00
70762;DHT22;58360;0.000;0.000;2023-02-14T05:33:58;2.70;92.30
70762;DHT22;58360;0.000;0.000;2023-02-14T05:36:24;2.70;92.30
70762;DHT22;58360;0.000;0.000;2023-02-14T05:38:49;2.70;92.10
70762;DHT22;58360;0.000;0.000;2023-02-14T05:41:15;2.70;92.00
70762;DHT22;58360;0.000;0.000;2023-02-14T05:43:41;2.70;92.00
70762;DHT22;58360;0.000;0.000;2023-02-14T05:46:06;2.70;92.00
70762;DHT22;58360;0.000;0.000;2023-02-14T05:48:32;2.70;92.00
70762;DHT22;58360;0.000;0.000;2023-02-14T05:51:06;2.60;91.90
70762;DHT22;58360;0.000;0.000;2023-02-14T05:53:32;2.60;92.00
70762;DHT22;58360;0.000;0.000;2023-02-14T05:55:58;2.60;91.90
70762;DHT22;58360;0.000;0.000;2023-02-14T05:58:24;2.60;91.90
70762;DHT22;58360;0.000;0.000;2023-02-14T06:00:49;2.50;91.90
70762;DHT22;58360;0.000;0.000;2023-02-14T06:03:15;2.50;91.90
70762;DHT22;58360;0.000;0.000;2023-02-14T06:05:41;2.50;91.90
70762;DHT22;58360;0.000;0.000;2023-02-14T06:08:06;2.50;91.90
70762;DHT22;58360;0.000;0.000;2023-02-14T06:10:32;2.60;91.80
70762;DHT22;58360;0.000;0.000;2023-02-14T06:12:58;2.60;91.70
70762;DHT22;58360;0.000;0.000;2023-02-14T06:15:24;2.60;91.80
70762;DHT22;58360;0.000;0.000;2023-02-14T06:17:52;2.50;91.90
70762;DHT22;58360;0.000;0.000;2023-02-14T06:20:18;2.50;92.10
70762;DHT22;58360;0.000;0.000;2023-02-14T06:22:43;2.50;92.30
70762;DHT22;58360;0.000;0.000;2023-02-14T06:25:09;2.50;92.30
70762;DHT22;58360;0.000;0.000;2023-02-14T06:27:35;2.50;92.30
70762;DHT22;58360;0.000;0.000;2023-02-14T06:30:00;2.40;92.30
70762;DHT22;58360;0.000;0.000;2023-02-14T06:32:26;2.50;92.30
70762;DHT22;58360;0.000;0.000;2023-02-14T06:34:52;2.50;92.30
70762;DHT22;58360;0.000;0.000;2023-02-14T06:37:18;2.50;92.20
70762;DHT22;58360;0.000;0.000;2023-02-14T06:39:45;2.50;92.20
70762;DHT22;58360;0.000;0.000;2023-02-14T06:42:10;2.50;92.20
70762;DHT22;58360;0.000;0.000;2023-02-14T06:44:36;2.60;92.30
70762;DHT22;58360;0.000;0.000;2023-02-14T06:47:02;2.60;92.20
70762;DHT22;58360;0.000;0.000;2023-02-14T06:49:30;2.50;92.30
70762;DHT22;58360;0.000;0.000;2023-02-14T06:51:55;2.60;92.30
70762;DHT22;58360;0.000;0.000;2023-02-14T06:54:21;2.60;92.10
70762;DHT22;58360;0.000;0.000;2023-02-14T06:56:47;2.60;92.10
70762;DHT22;58360;0.000;0.000;2023-02-14T06:59:12;2.60;92.00
70762;DHT22;58360;0.000;0.000;2023-02-14T07:01:38;2.60;91.90
70762;DHT22;58360;0.000;0.000;2023-02-14T07:04:04;2.60;91.70
70762;DHT22;58360;0.000;0.000;2023-02-14T07:06:30;2.40;92.00
70762;DHT22;58360;0.000;0.000;2023-02-14T07:08:56;2.30;92.30
70762;DHT22;58360;0.000;0.000;2023-02-14T07:11:22;2.20;92.60
70762;DHT22;58360;0.000;0.000;2023-02-14T07:13:47;2.20;92.70
70762;DHT22;58360;0.000;0.000;2023-02-14T07:16:13;2.20;92.70
70762;DHT22;58360;0.000;0.000;2023-02-14T07:18:39;2.20;92.80
70762;DHT22;58360;0.000;0.000;2023-02-14T07:21:05;2.20;92.80
70762;DHT22;58360;0.000;0.000;2023-02-14T07:23:30;2.20;92.80
70762;DHT22;58360;0.000;0.000;2023-02-14T07:25:57;2.20;92.90
70762;DHT22;58360;0.000;0.000;2023-02-14T07:28:22;2.30;92.90
70762;DHT22;58360;0.000;0.000;2023-02-14T07:30:48;2.30;93.00
70762;DHT22;58360;0.000;0.000;2023-02-14T07:33:14;2.40;93.00
70762;DHT22;58360;0.000;0.000;2023-02-14T07:35:39;2.50;93.00
70762;DHT22;58360;0.000;0.000;2023-02-14T07:38:05;2.50;92.90
70762;DHT22;58360;0.000;0.000;2023-02-14T07:40:31;2.60;93.00
70762;DHT22;58360;0.000;0.000;2023-02-14T07:42:57;2.60;93.10
70762;DHT22;58360;0.000;0.000;2023-02-14T07:45:23;2.70;92.90
70762;DHT22;58360;0.000;0.000;2023-02-14T07:47:51;2.80;92.80
70762;DHT22;58360;0.000;0.000;2023-02-14T07:50:18;2.90;92.70
70762;DHT22;58360;0.000;0.000;2023-02-14T07:52:44;3.10;92.60
70762;DHT22;58360;0.000;0.000;2023-02-14T07:55:10;3.20;92.40
70762;DHT22;58360;0.000;0.000;2023-02-14T07:57:36;3.20;92.20
70762;DHT22;58360;0.000;0.000;2023-02-14T08:00:02;3.30;92.10
70762;DHT22;58360;0.000;0.000;2023-02-14T08:02:28;3.40;92.00
70762;DHT22;58360;0.000;0.000;2023-02-14T08:04:54;3.50;92.00
70762;DHT22;58360;0.000;0.000;2023-02-14T08:07:20;3.60;92.10
70762;DHT22;58360;0.000;0.000;2023-02-14T08:09:45;3.60;92.00
70762;DHT22;58360;0.000;0.000;2023-02-14T08:12:11;3.60;92.10
70762;DHT22;58360;0.000;0.000;2023-02-14T08:14:55;3.60;92.10
70762;DHT22;58360;0.000;0.000;2023-02-14T08:17:41;3.60;92.20
70762;DHT22;58360;0.000;0.000;2023-02-14T08:20:06;3.70;92.20
70762;DHT22;58360;0.000;0.000;2023-02-14T08:22:32;3.80;92.30
70762;DHT22;58360;0.000;0.000;2023-02-14T08:24:58;3.80;92.50
70762;DHT22;58360;0.000;0.000;2023-02-14T08:27:24;4.00;92.50
70762;DHT22;58360;0.000;0.000;2023-02-14T08:29:49;4.00;92.50
70762;DHT22;58360;0.000;0.000;2023-02-14T08:32:15;4.20;92.40
70762;DHT22;58360;0.000;0.000;2023-02-14T08:34:45;4.30;92.20
70762;DHT22;58360;0.000;0.000;2023-02-14T08:37:11;4.40;91.90
70762;DHT22;58360;0.000;0.000;2023-02-14T08:39:38;4.50;92.00
70762;DHT22;58360;0.000;0.000;2023-02-14T08:42:04;4.60;91.90
70762;DHT22;58360;0.000;0.000;2023-02-14T08:44:30;4.60;91.70
70762;DHT22;58360;0.000;0.000;2023-02-14T08:46:56;4.70;91.60
70762;DHT22;58360;0.000;0.000;2023-02-14T08:49:21;4.70;91.60
70762;DHT22;58360;0.000;0.000;2023-02-14T08:51:47;4.90;91.30
70762;DHT22;58360;0.000;0.000;2023-02-14T08:54:13;5.20;91.00
70762;DHT22;58360;0.000;0.000;2023-02-14T08:56:38;5.30;90.70
70762;DHT22;58360;0.000;0.000;2023-02-14T08:59:05;5.40;90.50
70762;DHT22;58360;0.000;0.000;2023-02-14T09:01:31;5.40;90.30
70762;DHT22;58360;0.000;0.000;2023-02-14T09:03:57;5.40;90.40
70762;DHT22;58360;0.000;0.000;2023-02-14T09:06:23;5.50;90.40
70762;DHT22;58360;0.000;0.000;2023-02-14T09:08:49;5.50;90.10
70762;DHT22;58360;0.000;0.000;2023-02-14T09:11:17;5.40;90.40
70762;DHT22;58360;0.000;0.000;2023-02-14T09:13:44;5.60;90.40
70762;DHT22;58360;0.000;0.000;2023-02-14T09:16:12;5.60;90.40
70762;DHT22;58360;0.000;0.000;2023-02-14T09:18:38;5.70;90.40
70762;DHT22;58360;0.000;0.000;2023-02-14T09:21:12;5.70;90.30
70762;DHT22;58360;0.000;0.000;2023-02-14T09:23:39;5.80;90.30
70762;DHT22;58360;0.000;0.000;2023-02-14T09:26:07;5.80;90.40
70762;DHT22;58360;0.000;0.000;2023-02-14T09:28:34;5.90;90.20
70762;DHT22;58360;0.000;0.000;2023-02-14T09:31:14;6.10;90.30
70762;DHT22;58360;0.000;0.000;2023-02-14T09:33:41;6.10;90.30
70762;DHT22;58360;0.000;0.000;2023-02-14T09:36:07;6.30;90.00
70762;DHT22;58360;0.000;0.000;2023-02-14T09:38:51;6.30;90.00
70762;DHT22;58360;0.000;0.000;2023-02-14T09:50:19;6.60;90.10
70762;DHT22;58360;0.000;0.000;2023-02-14T09:52:50;6.70;89.90
70762;DHT22;58360;0.000;0.000;2023-02-14T09:55:17;6.80;89.70
70762;DHT22;58360;0.000;0.000;2023-02-14T09:58:12;6.90;89.70
70762;DHT22;58360;0.000;0.000;2023-02-14T10:00:44;6.90;88.60
70762;DHT22;58360;0.000;0.000;2023-02-14T10:11:45;7.40;86.80
70762;DHT22;58360;0.000;0.000;2023-02-14T10:14:16;7.40;86.50
70762;DHT22;58360;0.000;0.000;2023-02-14T10:17:00;7.50;86.20
70762;DHT22;58360;0.000;0.000;2023-02-14T10:19:43;7.60;85.60
70762;DHT22;58360;0.000;0.000;2023-02-14T10:22:13;7.80;85.40
70762;DHT22;58360;0.000;0.000;2023-02-14T10:24:48;7.80;85.00
70762;DHT22;58360;0.000;0.000;2023-02-14T10:27:34;8.00;84.60
70762;DHT22;58360;0.000;0.000;2023-02-14T10:30:00;8.00;84.30
70762;DHT22;58360;0.000;0.000;2023-02-14T10:32:35;8.10;83.90
70762;DHT22;58360;0.000;0.000;2023-02-14T10:35:15;8.10;84.00
70762;DHT22;58360;0.000;0.000;2023-02-14T10:46:52;8.20;84.00
70762;DHT22;58360;0.000;0.000;2023-02-14T10:54:49;8.50;83.00
70762;DHT22;58360;0.000;0.000;2023-02-14T10:57:17;8.60;82.70
70762;DHT22;58360;0.000;0.000;2023-02-14T11:00:05;8.60;82.80
70762;DHT22;58360;0.000;0.000;2023-02-14T11:02:40;8.70;82.20
70762;DHT22;58360;0.000;0.000;2023-02-14T11:05:22;8.80;82.30
70762;DHT22;58360;0.000;0.000;2023-02-14T11:07:49;8.90;82.20
70762;DHT22;58360;0.000;0.000;2023-02-14T11:10:15;8.90;82.10
70762;DHT22;58360;0.000;0.000;2023-02-14T11:12:42;8.90;82.20
70762;DHT22;58360;0.000;0.000;2023-02-14T11:15:31;9.00;81.90
70762;DHT22;58360;0.000;0.000;2023-02-14T11:18:24;9.20;80.90
70762;DHT22;58360;0.000;0.000;2023-02-14T11:21:15;9.20;80.90
70762;DHT22;58360;0.000;0.000;2023-02-14T11:23:49;9.10;81.40
70762;DHT22;58360;0.000;0.000;2023-02-14T11:26:28;9.20;81.30
70762;DHT22;58360;0.000;0.000;2023-02-14T11:28:58;9.30;81.50
70762;DHT22;58360;0.000;0.000;2023-02-14T11:31:30;9.40;80.60
70762;DHT22;58360;0.000;0.000;2023-02-14T11:33:56;9.40;80.60
70762;DHT22;58360;0.000;0.000;2023-02-14T11:36:22;9.50;80.40
70762;DHT22;58360;0.000;0.000;2023-02-14T11:39:28;9.40;80.70
70762;DHT22;58360;0.000;0.000;2023-02-14T11:41:57;9.60;80.40
70762;DHT22;58360;0.000;0.000;2023-02-14T11:44:29;9.80;79.60
70762;DHT22;58360;0.000;0.000;2023-02-14T11:46:56;9.80;79.10
70762;DHT22;58360;0.000;0.000;2023-02-14T11:49:31;9.90;79.00
70762;DHT22;58360;0.000;0.000;2023-02-14T11:52:00;9.90;78.90
70762;DHT22;58360;0.000;0.000;2023-02-14T11:54:35;9.90;78.90
70762;DHT22;58360;0.000;0.000;2023-02-14T11:59:41;10.10;78.30
70762;DHT22;58360;0.000;0.000;2023-02-14T12:04:56;10.20;78.10
70762;DHT22;58360;0.000;0.000;2023-02-14T12:07:31;10.10;78.20
70762;DHT22;58360;0.000;0.000;2023-02-14T12:15:26;10.40;77.10
70762;DHT22;58360;0.000;0.000;2023-02-14T12:17:57;10.40;77.30
70762;DHT22;58360;0.000;0.000;2023-02-14T12:20:59;10.60;76.40
70762;DHT22;58360;0.000;0.000;2023-02-14T12:26:03;10.50;76.80
70762;DHT22;58360;0.000;0.000;2023-02-14T12:28:38;10.60;76.50
70762;DHT22;58360;0.000;0.000;2023-02-14T12:31:09;10.80;75.70
70762;DHT22;58360;0.000;0.000;2023-02-14T12:33:36;10.80;75.30
70762;DHT22;58360;0.000;0.000;2023-02-14T12:39:55;10.90;75.00
70762;DHT22;58360;0.000;0.000;2023-02-14T12:47:48;11.10;74.50
70762;DHT22;58360;0.000;0.000;2023-02-14T12:58:44;11.40;73.10
70762;DHT22;58360;0.000;0.000;2023-02-14T13:06:11;11.50;72.50
70762;DHT22;58360;0.000;0.000;2023-02-14T13:14:40;11.60;71.50
70762;DHT22;58360;0.000;0.000;2023-02-14T13:22:21;11.50;71.70
70762;DHT22;58360;0.000;0.000;2023-02-14T13:25:00;11.50;72.30
70762;DHT22;58360;0.000;0.000;2023-02-14T13:27:31;11.60;71.90
70762;DHT22;58360;0.000;0.000;2023-02-14T13:30:06;11.50;71.90
70762;DHT22;58360;0.000;0.000;2023-02-14T13:32:39;11.50;72.30
70762;DHT22;58360;0.000;0.000;2023-02-14T13:35:06;11.60;71.50
70762;DHT22;58360;0.000;0.000;2023-02-14T13:37:32;11.60;71.00
70762;DHT22;58360;0.000;0.000;2023-02-14T13:40:06;11.50;71.60
70762;DHT22;58360;0.000;0.000;2023-02-14T13:48:10;11.70;71.40
70762;DHT22;58360;0.000;0.000;2023-02-14T13:51:00;11.60;70.70
70762;DHT22;58360;0.000;0.000;2023-02-14T13:55:59;11.70;70.90
70762;DHT22;58360;0.000;0.000;2023-02-14T13:58:25;11.60;71.10
70762;DHT22;58360;0.000;0.000;2023-02-14T14:00:52;11.60;71.40
70762;DHT22;58360;0.000;0.000;2023-02-14T14:06:07;11.70;70.50
70762;DHT22;58360;0.000;0.000;2023-02-14T14:08:42;12.00;69.70
70762;DHT22;58360;0.000;0.000;2023-02-14T14:16:58;12.00;68.80
70762;DHT22;58360;0.000;0.000;2023-02-14T14:22:04;11.80;70.30
70762;DHT22;58360;0.000;0.000;2023-02-14T14:24:51;12.20;68.70
70762;DHT22;58360;0.000;0.000;2023-02-14T14:27:40;12.40;67.70
70762;DHT22;58360;0.000;0.000;2023-02-14T14:30:19;12.40;67.50
70762;DHT22;58360;0.000;0.000;2023-02-14T14:32:46;12.40;67.80
70762;DHT22;58360;0.000;0.000;2023-02-14T14:35:18;12.30;68.40
70762;DHT22;58360;0.000;0.000;2023-02-14T14:37:56;12.30;68.70
70762;DHT22;58360;0.000;0.000;2023-02-14T14:42:49;12.20;68.70
70762;DHT22;58360;0.000;0.000;2023-02-14T14:45:25;12.40;68.40
70762;DHT22;58360;0.000;0.000;2023-02-14T14:47:54;12.50;68.40
70762;DHT22;58360;0.000;0.000;2023-02-14T14:50:27;12.50;68.60
70762;DHT22;58360;0.000;0.000;2023-02-14T14:53:05;12.70;67.70
70762;DHT22;58360;0.000;0.000;2023-02-14T14:55:35;12.70;67.70
70762;DHT22;58360;0.000;0.000;2023-02-14T14:58:05;12.60;67.30
70762;DHT22;58360;0.000;0.000;2023-02-14T15:00:35;12.80;66.00
70762;DHT22;58360;0.000;0.000;2023-02-14T15:05:44;12.70;67.20
70762;DHT22;58360;0.000;0.000;2023-02-14T15:11:12;12.60;67.70
70762;DHT22;58360;0.000;0.000;2023-02-14T15:13:58;12.60;66.70
70762;DHT22;58360;0.000;0.000;2023-02-14T15:16:34;12.50;67.10
70762;DHT22;58360;0.000;0.000;2023-02-14T15:22:16;12.30;67.70
70762;DHT22;58360;0.000;0.000;2023-02-14T15:24:42;12.30;67.80
70762;DHT22;58360;0.000;0.000;2023-02-14T15:27:20;12.20;68.40
70762;DHT22;58360;0.000;0.000;2023-02-14T15:30:03;12.10;68.30
70762;DHT22;58360;0.000;0.000;2023-02-14T15:32:30;12.00;68.90
70762;DHT22;58360;0.000;0.000;2023-02-14T15:34:58;12.00;69.00
70762;DHT22;58360;0.000;0.000;2023-02-14T15:37:25;11.90;69.00
70762;DHT22;58360;0.000;0.000;2023-02-14T15:39:53;12.00;68.30
70762;DHT22;58360;0.000;0.000;2023-02-14T15:42:31;12.10;68.10
70762;DHT22;58360;0.000;0.000;2023-02-14T15:48:21;12.00;68.10
70762;DHT22;58360;0.000;0.000;2023-02-14T15:50:50;11.90;68.40
70762;DHT22;58360;0.000;0.000;2023-02-14T15:53:40;11.90;68.40
70762;DHT22;58360;0.000;0.000;2023-02-14T15:58:44;12.00;68.20
70762;DHT22;58360;0.000;0.000;2023-02-14T16:01:10;11.90;68.00
70762;DHT22;58360;0.000;0.000;2023-02-14T16:03:39;11.90;68.50
70762;DHT22;58360;0.000;0.000;2023-02-14T16:06:32;11.80;68.80
70762;DHT22;58360;0.000;0.000;2023-02-14T16:08:58;11.70;69.30
70762;DHT22;58360;0.000;0.000;2023-02-14T16:11:32;11.70;70.60
70762;DHT22;58360;0.000;0.000;2023-02-14T16:14:33;11.60;71.30
70762;DHT22;58360;0.000;0.000;2023-02-14T16:17:32;11.60;72.00
70762;DHT22;58360;0.000;0.000;2023-02-14T16:19:59;11.40;72.20
70762;DHT22;58360;0.000;0.000;2023-02-14T16:22:45;11.20;72.70
70762;DHT22;58360;0.000;0.000;2023-02-14T16:25:10;11.20;73.00
70762;DHT22;58360;0.000;0.000;2023-02-14T16:27:36;11.20;73.20
70762;DHT22;58360;0.000;0.000;2023-02-14T16:30:01;11.10;73.60
70762;DHT22;58360;0.000;0.000;2023-02-14T16:32:27;11.00;73.80
70762;DHT22;58360;0.000;0.000;2023-02-14T16:34:53;11.00;74.00
70762;DHT22;58360;0.000;0.000;2023-02-14T16:37:25;10.90;74.20
70762;DHT22;58360;0.000;0.000;2023-02-14T16:39:54;10.90;74.30
70762;DHT22;58360;0.000;0.000;2023-02-14T16:42:22;10.80;74.60
70762;DHT22;58360;0.000;0.000;2023-02-14T16:44:49;10.70;74.80
70762;DHT22;58360;0.000;0.000;2023-02-14T16:47:16;10.70;75.20
70762;DHT22;58360;0.000;0.000;2023-02-14T16:49:42;10.60;75.70
70762;DHT22;58360;0.000;0.000;2023-02-14T16:52:20;10.50;76.00
70762;DHT22;58360;0.000;0.000;2023-02-14T16:54:48;10.60;75.80
70762;DHT22;58360;0.000;0.000;2023-02-14T16:57:24;10.70;75.70
70762;DHT22;58360;0.000;0.000;2023-02-14T16:59:52;10.60;75.50
70762;DHT22;58360;0.000;0.000;2023-02-14T17:02:18;10.50;76.00
70762;DHT22;58360;0.000;0.000;2023-02-14T17:04:44;10.30;76.30
70762;DHT22;58360;0.000;0.000;2023-02-14T17:07:11;10.20;76.60
70762;DHT22;58360;0.000;0.000;2023-02-14T17:09:39;10.10;77.60
70762;DHT22;58360;0.000;0.000;2023-02-14T17:12:11;10.10;77.40
70762;DHT22;58360;0.000;0.000;2023-02-14T17:14:44;10.00;78.10
70762;DHT22;58360;0.000;0.000;2023-02-14T17:17:11;10.10;77.90
70762;DHT22;58360;0.000;0.000;2023-02-14T17:19:37;10.20;77.20
70762;DHT22;58360;0.000;0.000;2023-02-14T17:22:03;10.10;77.20
70762;DHT22;58360;0.000;0.000;2023-02-14T17:24:29;10.00;77.60
70762;DHT22;58360;0.000;0.000;2023-02-14T17:26:55;9.90;78.30
70762;DHT22;58360;0.000;0.000;2023-02-14T17:29:20;9.80;78.40
70762;DHT22;58360;0.000;0.000;2023-02-14T17:31:46;9.60;78.70
70762;DHT22;58360;0.000;0.000;2023-02-14T17:34:12;9.60;79.30
70762;DHT22;58360;0.000;0.000;2023-02-14T17:36:38;9.60;79.60
70762;DHT22;58360;0.000;0.000;2023-02-14T17:39:04;9.60;79.80
70762;DHT22;58360;0.000;0.000;2023-02-14T17:41:31;9.70;79.40
70762;DHT22;58360;0.000;0.000;2023-02-14T17:43:57;9.50;79.60
70762;DHT22;58360;0.000;0.000;2023-02-14T17:46:30;9.40;80.40
70762;DHT22;58360;0.000;0.000;2023-02-14T17:48:57;9.30;80.80
70762;DHT22;58360;0.000;0.000;2023-02-14T17:51:23;9.20;80.90
70762;DHT22;58360;0.000;0.000;2023-02-14T17:53:49;9.10;81.20
70762;DHT22;58360;0.000;0.000;2023-02-14T17:56:23;9.00;81.70
70762;DHT22;58360;0.000;0.000;2023-02-14T17:58:50;8.90;82.10
70762;DHT22;58360;0.000;0.000;2023-02-14T18:01:22;9.00;82.40
70762;DHT22;58360;0.000;0.000;2023-02-14T18:03:48;8.90;82.40
70762;DHT22;58360;0.000;0.000;2023-02-14T18:06:16;8.80;82.60
70762;DHT22;58360;0.000;0.000;2023-02-14T18:08:46;8.70;82.90
70762;DHT22;58360;0.000;0.000;2023-02-14T18:11:17;8.70;83.10
70762;DHT22;58360;0.000;0.000;2023-02-14T18:13:43;8.70;83.20
70762;DHT22;58360;0.000;0.000;2023-02-14T18:16:11;8.60;83.40
70762;DHT22;58360;0.000;0.000;2023-02-14T18:18:38;8.50;83.50
70762;DHT22;58360;0.000;0.000;2023-02-14T18:21:06;8.50;84.00
70762;DHT22;58360;0.000;0.000;2023-02-14T18:23:32;8.60;83.90
70762;DHT22;58360;0.000;0.000;2023-02-14T18:26:00;8.60;83.60
70762;DHT22;58360;0.000;0.000;2023-02-14T18:28:28;8.60;83.60
70762;DHT22;58360;0.000;0.000;2023-02-14T18:30:54;8.50;83.80
70762;DHT22;58360;0.000;0.000;2023-02-14T18:33:22;8.40;84.20
70762;DHT22;58360;0.000;0.000;2023-02-14T18:35:47;8.20;84.60
70762;DHT22;58360;0.000;0.000;2023-02-14T18:38:13;8.20;84.90
70762;DHT22;58360;0.000;0.000;2023-02-14T18:40:39;8.20;84.90
70762;DHT22;58360;0.000;0.000;2023-02-14T18:43:06;8.20;84.90
70762;DHT22;58360;0.000;0.000;2023-02-14T18:45:36;8.20;84.90
70762;DHT22;58360;0.000;0.000;2023-02-14T18:48:02;8.10;84.80
70762;DHT22;58360;0.000;0.000;2023-02-14T18:50:28;8.00;85.00
70762;DHT22;58360;0.000;0.000;2023-02-14T18:52:54;8.00;85.30
70762;DHT22;58360;0.000;0.000;2023-02-14T18:55:19;7.90;85.30